Airfield :







YOU CAN JOIN US ON...

 
LOGIN :

Register | Disclaimer

   EN    FR    IT 

 









Legend :    VFR   Marginal VFR   IFR   Intensive IFR   Very Intensive IFR
Visi :
Ceiling :
>= 8 km
>= 3000ft
5 to 8 km
1000 to 3000 ft
1500m to 5 km
500 to 1000 ft
800 to 1500m
200 to 500 ft
< 800m
< 200 ft
Symbols :   Thunderstorms  Fog  Heavy snow  Heavy precipitations  Wind > 20 kt






- Airport Elevation : 1270 ft
- IATA code : YMT


CYMT - Chapais

CURRENT METAR :
  • 231300Z AUTO 20010G18KT 9SM SCT081 BKN110 06/M02 A2956 RMK SLP029

EXPIRED METARs :
  • 231200Z AUTO 20010G16KT 9SM OVC086 05/M02 A2956 RMK SLP030
  • 231100Z AUTO 20010G16KT 9SM OVC096 04/M02 A2955 RMK SLP025
  • 231000Z AUTO 20009KT 9SM OVC110 02/M02 A2953 RMK SLP022
  • 230900Z AUTO 17007KT 9SM SCT096 SCT130 M01/M03 A2955 RMK SLP029

TAF TAF CYMT
Valid from the 23 at 12:00 until the 24 at 00:00 UTC


231140Z 2312/2324 20010G20KT P6SM OVC100
BECMG 2313/2315 23018G28KT
FM231500 23018G28KT P6SM OVC060
FM231800 30010KT P6SM -RA OVC025
TEMPO 2318/2321 5SM -RASN BR OVC020
FM232100 34010G20KT 1 1/2SM -SN OVC015 RMK FCST BASED ON AUTO OBS. NXT FCST BY 231800Z
CZUL FIR / North America



MET'MAP, your aeronautical weather chart ! - Copyright ORBIFLY December 2007 - Disclaimer

ORBIFLY MET'MAP TEAM :

Programming & Development : Alexandra Zaïnal
Original concept : Baudouin d'Aumeries
Technical & hardware support : Manuel Goepfert
Assistance : Marc-Olivier Méhu




SOURCES & CREDITS :

   NOAA